sensor_id;sensor_type;location;lat;lon;timestamp;pressure;altitude;pressure_sealevel;temperature;humidity
19114;BME280;9689;51.052;13.772;2023-06-26T00:00:48;100436.16;;;19.17;72.57
19114;BME280;9689;51.052;13.772;2023-06-26T00:05:49;100434.41;;;19.00;73.06
19114;BME280;9689;51.052;13.772;2023-06-26T00:10:50;100432.75;;;18.82;74.17
19114;BME280;9689;51.052;13.772;2023-06-26T00:15:52;100426.59;;;18.81;74.09
19114;BME280;9689;51.052;13.772;2023-06-26T00:20:53;100419.47;;;18.66;74.24
19114;BME280;9689;51.052;13.772;2023-06-26T00:25:54;100416.28;;;18.77;74.12
19114;BME280;9689;51.052;13.772;2023-06-26T00:30:56;100421.41;;;18.80;74.13
19114;BME280;9689;51.052;13.772;2023-06-26T00:35:57;100410.06;;;18.60;74.79
19114;BME280;9689;51.052;13.772;2023-06-26T00:40:57;100413.34;;;18.66;74.82
19114;BME280;9689;51.052;13.772;2023-06-26T00:46:00;100406.72;;;18.57;74.46
19114;BME280;9689;51.052;13.772;2023-06-26T00:51:01;100408.75;;;18.52;74.81
19114;BME280;9689;51.052;13.772;2023-06-26T00:56:03;100409.53;;;18.36;75.37
19114;BME280;9689;51.052;13.772;2023-06-26T01:01:05;100405.88;;;18.39;74.63
19114;BME280;9689;51.052;13.772;2023-06-26T01:06:11;100409.53;;;18.36;74.93
19114;BME280;9689;51.052;13.772;2023-06-26T01:11:15;100405.72;;;18.25;75.34
19114;BME280;9689;51.052;13.772;2023-06-26T01:16:17;100407.97;;;18.32;75.41
19114;BME280;9689;51.052;13.772;2023-06-26T01:21:20;100399.97;;;18.17;75.98
19114;BME280;9689;51.052;13.772;2023-06-26T01:26:22;100394.72;;;17.98;75.95
19114;BME280;9689;51.052;13.772;2023-06-26T01:31:24;100389.63;;;17.95;76.76
19114;BME280;9689;51.052;13.772;2023-06-26T01:36:26;100391.31;;;17.96;76.51
19114;BME280;9689;51.052;13.772;2023-06-26T01:41:29;100381.50;;;17.99;76.54
19114;BME280;9689;51.052;13.772;2023-06-26T01:46:36;100377.75;;;17.86;76.45
19114;BME280;9689;51.052;13.772;2023-06-26T01:51:42;100372.75;;;17.80;76.99
19114;BME280;9689;51.052;13.772;2023-06-26T01:56:49;100373.69;;;17.79;77.37
19114;BME280;9689;51.052;13.772;2023-06-26T02:01:53;100360.66;;;17.76;77.52
19114;BME280;9689;51.052;13.772;2023-06-26T02:06:54;100359.97;;;17.72;77.36
19114;BME280;9689;51.052;13.772;2023-06-26T02:11:56;100368.22;;;17.65;77.66
19114;BME280;9689;51.052;13.772;2023-06-26T02:16:58;100364.16;;;17.58;77.62
19114;BME280;9689;51.052;13.772;2023-06-26T02:21:59;100369.56;;;17.55;77.87
19114;BME280;9689;51.052;13.772;2023-06-26T02:27:01;100367.53;;;17.42;77.86
19114;BME280;9689;51.052;13.772;2023-06-26T02:32:02;100363.03;;;17.44;77.99
19114;BME280;9689;51.052;13.772;2023-06-26T02:37:03;100356.72;;;17.30;78.83
19114;BME280;9689;51.052;13.772;2023-06-26T02:42:08;100353.00;;;17.34;79.02
19114;BME280;9689;51.052;13.772;2023-06-26T02:47:09;100351.22;;;17.34;78.45
19114;BME280;9689;51.052;13.772;2023-06-26T02:52:15;100346.09;;;17.31;78.28
19114;BME280;9689;51.052;13.772;2023-06-26T02:57:17;100346.72;;;17.36;78.51
19114;BME280;9689;51.052;13.772;2023-06-26T03:02:18;100340.06;;;17.29;78.29
19114;BME280;9689;51.052;13.772;2023-06-26T03:07:19;100343.81;;;17.23;79.15
19114;BME280;9689;51.052;13.772;2023-06-26T03:12:22;100344.59;;;17.26;79.29
19114;BME280;9689;51.052;13.772;2023-06-26T03:17:23;100342.53;;;17.32;78.55
19114;BME280;9689;51.052;13.772;2023-06-26T03:22:28;100342.69;;;17.29;78.27
19114;BME280;9689;51.052;13.772;2023-06-26T03:27:30;100349.28;;;17.19;78.44
19114;BME280;9689;51.052;13.772;2023-06-26T03:32:31;100343.81;;;17.23;78.83
19114;BME280;9689;51.052;13.772;2023-06-26T03:37:32;100343.47;;;17.31;78.45
19114;BME280;9689;51.052;13.772;2023-06-26T03:42:34;100343.16;;;17.37;78.48
19114;BME280;9689;51.052;13.772;2023-06-26T03:47:35;100337.19;;;17.34;77.96
19114;BME280;9689;51.052;13.772;2023-06-26T03:52:36;100331.81;;;17.54;77.44
19114;BME280;9689;51.052;13.772;2023-06-26T03:57:38;100335.75;;;17.64;77.15
19114;BME280;9689;51.052;13.772;2023-06-26T04:02:41;100318.72;;;17.71;76.57
19114;BME280;9689;51.052;13.772;2023-06-26T04:07:43;100322.50;;;17.66;76.22
19114;BME280;9689;51.052;13.772;2023-06-26T04:12:45;100319.28;;;17.59;76.75
19114;BME280;9689;51.052;13.772;2023-06-26T04:17:46;100317.94;;;17.50;77.27
19114;BME280;9689;51.052;13.772;2023-06-26T04:22:47;100314.88;;;17.60;77.73
19114;BME280;9689;51.052;13.772;2023-06-26T04:27:49;100310.25;;;17.65;77.33
19114;BME280;9689;51.052;13.772;2023-06-26T04:32:50;100317.28;;;17.83;76.63
19114;BME280;9689;51.052;13.772;2023-06-26T04:37:50;100315.31;;;17.87;76.77
19114;BME280;9689;51.052;13.772;2023-06-26T04:42:52;100317.28;;;18.00;76.15
19114;BME280;9689;51.052;13.772;2023-06-26T04:47:53;100310.78;;;18.07;76.17
19114;BME280;9689;51.052;13.772;2023-06-26T04:52:54;100300.13;;;18.26;75.00
19114;BME280;9689;51.052;13.772;2023-06-26T04:57:56;100309.09;;;18.40;74.37
19114;BME280;9689;51.052;13.772;2023-06-26T05:02:57;100294.34;;;18.53;73.92
19114;BME280;9689;51.052;13.772;2023-06-26T05:08:13;100293.84;;;18.62;73.25
19114;BME280;9689;51.052;13.772;2023-06-26T05:13:15;100289.88;;;18.71;72.71
19114;BME280;9689;51.052;13.772;2023-06-26T05:18:17;100282.56;;;18.91;72.66
19114;BME280;9689;51.052;13.772;2023-06-26T05:23:18;100285.91;;;19.11;71.59
19114;BME280;9689;51.052;13.772;2023-06-26T05:28:22;100280.81;;;19.24;71.14
19114;BME280;9689;51.052;13.772;2023-06-26T05:33:26;100274.81;;;19.36;70.59
19114;BME280;9689;51.052;13.772;2023-06-26T05:38:27;100264.22;;;19.52;70.25
19114;BME280;9689;51.052;13.772;2023-06-26T05:43:29;100259.53;;;19.72;69.69
19114;BME280;9689;51.052;13.772;2023-06-26T05:48:30;100248.44;;;19.96;69.01
19114;BME280;9689;51.052;13.772;2023-06-26T05:53:31;100242.81;;;20.16;68.28
19114;BME280;9689;51.052;13.772;2023-06-26T05:58:34;100247.72;;;20.37;68.01
19114;BME280;9689;51.052;13.772;2023-06-26T06:03:34;100243.38;;;20.50;67.45
19114;BME280;9689;51.052;13.772;2023-06-26T06:08:35;100239.91;;;20.64;67.18
19114;BME280;9689;51.052;13.772;2023-06-26T06:13:37;100240.00;;;20.76;66.86
19114;BME280;9689;51.052;13.772;2023-06-26T06:18:38;100231.41;;;21.00;66.17
19114;BME280;9689;51.052;13.772;2023-06-26T06:23:39;100232.97;;;21.16;65.67
19114;BME280;9689;51.052;13.772;2023-06-26T06:28:41;100230.56;;;21.40;65.13
19114;BME280;9689;51.052;13.772;2023-06-26T06:33:41;100219.34;;;21.62;64.64
19114;BME280;9689;51.052;13.772;2023-06-26T06:38:43;100218.75;;;21.84;64.05
19114;BME280;9689;51.052;13.772;2023-06-26T06:43:45;100204.81;;;22.08;63.21
19114;BME280;9689;51.052;13.772;2023-06-26T06:48:46;100199.19;;;22.25;62.84
19114;BME280;9689;51.052;13.772;2023-06-26T06:53:47;100203.50;;;22.39;61.67
19114;BME280;9689;51.052;13.772;2023-06-26T06:58:49;100196.31;;;22.65;60.52
19114;BME280;9689;51.052;13.772;2023-06-26T07:03:49;100193.31;;;22.82;59.85
19114;BME280;9689;51.052;13.772;2023-06-26T07:08:50;100184.84;;;23.01;59.70
19114;BME280;9689;51.052;13.772;2023-06-26T07:13:52;100180.22;;;23.16;58.97
19114;BME280;9689;51.052;13.772;2023-06-26T07:18:53;100187.94;;;23.42;58.41
19114;BME280;9689;51.052;13.772;2023-06-26T07:23:54;100183.81;;;23.62;57.93
19114;BME280;9689;51.052;13.772;2023-06-26T07:28:56;100178.41;;;23.75;57.66
19114;BME280;9689;51.052;13.772;2023-06-26T07:33:57;100165.97;;;23.87;56.37
19114;BME280;9689;51.052;13.772;2023-06-26T07:38:57;100175.06;;;24.07;56.01
19114;BME280;9689;51.052;13.772;2023-06-26T07:43:59;100167.47;;;24.24;55.81
19114;BME280;9689;51.052;13.772;2023-06-26T07:49:00;100171.56;;;24.40;55.66
19114;BME280;9689;51.052;13.772;2023-06-26T07:54:01;100165.16;;;24.53;55.49
19114;BME280;9689;51.052;13.772;2023-06-26T07:59:03;100162.59;;;24.63;54.62
19114;BME280;9689;51.052;13.772;2023-06-26T08:04:03;100153.94;;;24.82;54.57
19114;BME280;9689;51.052;13.772;2023-06-26T08:09:04;100149.31;;;24.95;53.50
19114;BME280;9689;51.052;13.772;2023-06-26T08:14:08;100145.72;;;25.17;53.19
19114;BME280;9689;51.052;13.772;2023-06-26T08:19:09;100145.00;;;25.47;52.54
19114;BME280;9689;51.052;13.772;2023-06-26T08:24:10;100138.59;;;25.59;50.97
19114;BME280;9689;51.052;13.772;2023-06-26T08:29:14;100130.63;;;25.80;48.84
19114;BME280;9689;51.052;13.772;2023-06-26T08:34:15;100126.19;;;25.90;45.81
19114;BME280;9689;51.052;13.772;2023-06-26T08:39:16;100116.94;;;26.04;44.60
19114;BME280;9689;51.052;13.772;2023-06-26T08:44:18;100115.06;;;26.26;43.55
19114;BME280;9689;51.052;13.772;2023-06-26T08:49:29;100106.59;;;26.20;43.86
19114;BME280;9689;51.052;13.772;2023-06-26T08:54:42;100108.31;;;26.31;43.99
19114;BME280;9689;51.052;13.772;2023-06-26T08:59:47;100100.25;;;26.52;44.45
19114;BME280;9689;51.052;13.772;2023-06-26T09:04:48;100098.06;;;26.76;43.61
19114;BME280;9689;51.052;13.772;2023-06-26T09:09:49;100091.28;;;26.82;43.13
19114;BME280;9689;51.052;13.772;2023-06-26T09:14:51;100091.19;;;27.03;42.92
19114;BME280;9689;51.052;13.772;2023-06-26T09:19:52;100079.78;;;27.20;42.29
19114;BME280;9689;51.052;13.772;2023-06-26T09:24:53;100083.09;;;27.42;42.95
19114;BME280;9689;51.052;13.772;2023-06-26T09:29:56;100080.25;;;27.53;42.79
19114;BME280;9689;51.052;13.772;2023-06-26T09:34:57;100075.75;;;27.63;40.90
19114;BME280;9689;51.052;13.772;2023-06-26T09:39:59;100074.81;;;27.92;41.25
19114;BME280;9689;51.052;13.772;2023-06-26T09:45:02;100067.53;;;28.11;42.51
19114;BME280;9689;51.052;13.772;2023-06-26T09:50:03;100067.44;;;28.31;42.21
19114;BME280;9689;51.052;13.772;2023-06-26T09:55:08;100070.09;;;28.58;41.55
19114;BME280;9689;51.052;13.772;2023-06-26T10:00:12;100053.53;;;28.63;37.83
19114;BME280;9689;51.052;13.772;2023-06-26T10:05:13;100046.91;;;29.03;38.99
19114;BME280;9689;51.052;13.772;2023-06-26T10:10:15;100048.25;;;28.71;36.99
19114;BME280;9689;51.052;13.772;2023-06-26T10:15:20;100045.72;;;28.87;34.75
19114;BME280;9689;51.052;13.772;2023-06-26T10:20:21;100047.16;;;28.82;34.74
19114;BME280;9689;51.052;13.772;2023-06-26T10:25:24;100032.41;;;28.78;34.96
19114;BME280;9689;51.052;13.772;2023-06-26T10:30:29;100033.00;;;29.07;33.82
19114;BME280;9689;51.052;13.772;2023-06-26T10:35:42;100023.94;;;29.08;33.10
19114;BME280;9689;51.052;13.772;2023-06-26T10:40:44;100035.25;;;28.94;34.68
19114;BME280;9689;51.052;13.772;2023-06-26T10:45:47;100015.00;;;29.25;34.74
19114;BME280;9689;51.052;13.772;2023-06-26T10:50:53;100016.19;;;29.23;34.03
19114;BME280;9689;51.052;13.772;2023-06-26T10:55:55;100009.59;;;29.17;33.59
19114;BME280;9689;51.052;13.772;2023-06-26T11:06:28;100005.66;;;29.55;32.01
19114;BME280;9689;51.052;13.772;2023-06-26T11:11:56;99996.69;;;29.73;32.32
19114;BME280;9689;51.052;13.772;2023-06-26T11:17:05;99997.75;;;29.96;32.85
19114;BME280;9689;51.052;13.772;2023-06-26T11:22:07;99994.22;;;29.96;32.40
19114;BME280;9689;51.052;13.772;2023-06-26T11:27:08;99988.56;;;29.99;32.82
19114;BME280;9689;51.052;13.772;2023-06-26T11:32:10;99985.59;;;29.76;33.14
19114;BME280;9689;51.052;13.772;2023-06-26T11:37:12;99989.81;;;29.78;33.10
19114;BME280;9689;51.052;13.772;2023-06-26T11:42:12;99979.44;;;29.92;32.81
19114;BME280;9689;51.052;13.772;2023-06-26T11:47:14;99977.56;;;29.84;32.83
19114;BME280;9689;51.052;13.772;2023-06-26T11:52:16;99969.13;;;29.63;33.35
19114;BME280;9689;51.052;13.772;2023-06-26T11:57:17;99965.84;;;29.93;32.19
19114;BME280;9689;51.052;13.772;2023-06-26T12:02:18;99966.13;;;30.24;31.84
19114;BME280;9689;51.052;13.772;2023-06-26T12:07:20;99963.69;;;30.05;29.38
19114;BME280;9689;51.052;13.772;2023-06-26T12:12:22;99956.03;;;30.26;30.57
19114;BME280;9689;51.052;13.772;2023-06-26T12:17:27;99949.69;;;30.44;30.69
19114;BME280;9689;51.052;13.772;2023-06-26T12:22:34;99957.56;;;30.53;31.28
19114;BME280;9689;51.052;13.772;2023-06-26T12:27:35;99960.78;;;30.65;30.57
19114;BME280;9689;51.052;13.772;2023-06-26T12:32:36;99926.97;;;30.46;30.28
19114;BME280;9689;51.052;13.772;2023-06-26T12:37:38;99931.84;;;30.91;30.28
19114;BME280;9689;51.052;13.772;2023-06-26T12:42:41;99921.06;;;31.08;29.44
19114;BME280;9689;51.052;13.772;2023-06-26T12:47:43;99919.75;;;30.95;29.72
19114;BME280;9689;51.052;13.772;2023-06-26T12:52:45;99910.25;;;31.16;29.57
19114;BME280;9689;51.052;13.772;2023-06-26T12:57:46;99914.31;;;31.20;29.62
19114;BME280;9689;51.052;13.772;2023-06-26T13:02:47;99899.28;;;31.34;29.39
19114;BME280;9689;51.052;13.772;2023-06-26T13:07:49;99902.47;;;31.45;29.21
19114;BME280;9689;51.052;13.772;2023-06-26T13:12:53;99904.19;;;31.30;28.89
19114;BME280;9689;51.052;13.772;2023-06-26T13:17:53;99892.19;;;31.41;28.99
19114;BME280;9689;51.052;13.772;2023-06-26T13:22:56;99884.53;;;31.21;28.61
19114;BME280;9689;51.052;13.772;2023-06-26T13:27:56;99880.25;;;31.35;28.40
19114;BME280;9689;51.052;13.772;2023-06-26T13:32:58;99867.38;;;31.54;28.26
19114;BME280;9689;51.052;13.772;2023-06-26T13:38:00;99860.88;;;31.71;28.33
19114;BME280;9689;51.052;13.772;2023-06-26T13:43:01;99861.94;;;31.31;28.17
19114;BME280;9689;51.052;13.772;2023-06-26T13:48:05;99845.22;;;31.74;26.63
19114;BME280;9689;51.052;13.772;2023-06-26T13:53:07;99856.22;;;31.65;26.79
19114;BME280;9689;51.052;13.772;2023-06-26T13:58:08;99843.31;;;31.83;26.63
19114;BME280;9689;51.052;13.772;2023-06-26T14:03:10;99846.75;;;32.00;25.88
19114;BME280;9689;51.052;13.772;2023-06-26T14:08:13;99830.06;;;32.19;26.15
19114;BME280;9689;51.052;13.772;2023-06-26T14:13:14;99829.81;;;32.29;26.04
19114;BME280;9689;51.052;13.772;2023-06-26T14:18:14;99821.78;;;32.21;25.71
19114;BME280;9689;51.052;13.772;2023-06-26T14:23:18;99803.88;;;32.28;25.66
19114;BME280;9689;51.052;13.772;2023-06-26T14:28:19;99794.63;;;32.45;24.56
19114;BME280;9689;51.052;13.772;2023-06-26T14:33:19;99795.97;;;31.89;26.31
19114;BME280;9689;51.052;13.772;2023-06-26T14:38:21;99781.78;;;32.10;25.62
19114;BME280;9689;51.052;13.772;2023-06-26T14:43:22;99766.84;;;32.22;25.23
19114;BME280;9689;51.052;13.772;2023-06-26T14:48:23;99739.84;;;31.92;26.23
19114;BME280;9689;51.052;13.772;2023-06-26T14:53:28;99736.38;;;32.80;26.43
19114;BME280;9689;51.052;13.772;2023-06-26T14:58:28;99730.81;;;33.76;25.25
19114;BME280;9689;51.052;13.772;2023-06-26T15:03:29;99728.38;;;33.02;25.83
19114;BME280;9689;51.052;13.772;2023-06-26T15:08:31;99719.91;;;32.90;25.41
19114;BME280;9689;51.052;13.772;2023-06-26T15:13:32;99714.44;;;33.56;25.72
19114;BME280;9689;51.052;13.772;2023-06-26T15:18:33;99705.16;;;33.43;25.97
19114;BME280;9689;51.052;13.772;2023-06-26T15:23:34;99712.75;;;33.55;23.72
19114;BME280;9689;51.052;13.772;2023-06-26T15:28:35;99696.81;;;33.38;23.76
19114;BME280;9689;51.052;13.772;2023-06-26T15:33:36;99707.50;;;33.32;23.88
19114;BME280;9689;51.052;13.772;2023-06-26T15:38:38;99706.09;;;33.36;24.61
19114;BME280;9689;51.052;13.772;2023-06-26T15:43:39;99704.13;;;33.08;24.06
19114;BME280;9689;51.052;13.772;2023-06-26T15:48:41;99691.09;;;33.33;24.25
19114;BME280;9689;51.052;13.772;2023-06-26T15:53:43;99697.38;;;32.98;24.72
19114;BME280;9689;51.052;13.772;2023-06-26T15:58:43;99689.00;;;32.04;25.48
19114;BME280;9689;51.052;13.772;2023-06-26T16:03:46;99693.97;;;31.32;26.45
19114;BME280;9689;51.052;13.772;2023-06-26T16:08:48;99699.28;;;30.86;27.41
19114;BME280;9689;51.052;13.772;2023-06-26T16:13:51;99695.31;;;30.57;28.18
19114;BME280;9689;51.052;13.772;2023-06-26T16:18:54;99736.59;;;30.33;28.72
19114;BME280;9689;51.052;13.772;2023-06-26T16:23:56;99893.84;;;28.42;41.71
19114;BME280;9689;51.052;13.772;2023-06-26T16:28:57;99937.38;;;26.51;47.68
19114;BME280;9689;51.052;13.772;2023-06-26T16:33:57;99990.00;;;25.29;52.30
19114;BME280;9689;51.052;13.772;2023-06-26T16:38:59;100058.91;;;23.15;66.24
19114;BME280;9689;51.052;13.772;2023-06-26T16:44:02;99939.22;;;20.05;86.03
19114;BME280;9689;51.052;13.772;2023-06-26T16:49:03;99953.75;;;19.71;90.33
19114;BME280;9689;51.052;13.772;2023-06-26T16:54:05;99934.25;;;19.87;91.79
19114;BME280;9689;51.052;13.772;2023-06-26T16:59:05;99975.53;;;19.89;90.92
19114;BME280;9689;51.052;13.772;2023-06-26T17:04:06;99989.63;;;19.90;87.99
19114;BME280;9689;51.052;13.772;2023-06-26T17:09:08;99971.25;;;20.01;85.26
19114;BME280;9689;51.052;13.772;2023-06-26T17:14:10;99965.22;;;20.26;84.32
19114;BME280;9689;51.052;13.772;2023-06-26T17:19:10;99974.44;;;20.47;81.73
19114;BME280;9689;51.052;13.772;2023-06-26T17:24:13;99983.59;;;20.69;81.63
19114;BME280;9689;51.052;13.772;2023-06-26T17:29:14;99971.31;;;20.80;82.86
19114;BME280;9689;51.052;13.772;2023-06-26T17:34:14;99978.16;;;21.23;81.99
19114;BME280;9689;51.052;13.772;2023-06-26T17:39:16;100005.19;;;21.28;83.10
19114;BME280;9689;51.052;13.772;2023-06-26T17:44:18;100045.13;;;21.12;84.00
19114;BME280;9689;51.052;13.772;2023-06-26T17:49:18;100048.31;;;21.04;84.26
19114;BME280;9689;51.052;13.772;2023-06-26T17:54:20;100072.66;;;21.09;84.54
19114;BME280;9689;51.052;13.772;2023-06-26T17:59:21;100081.38;;;21.11;85.32
19114;BME280;9689;51.052;13.772;2023-06-26T18:04:22;100084.56;;;21.16;85.04
19114;BME280;9689;51.052;13.772;2023-06-26T18:09:24;100118.91;;;21.18;80.13
19114;BME280;9689;51.052;13.772;2023-06-26T18:14:25;100120.38;;;21.09;80.42
19114;BME280;9689;51.052;13.772;2023-06-26T18:19:26;100126.03;;;20.91;79.89
19114;BME280;9689;51.052;13.772;2023-06-26T18:24:28;100141.13;;;20.76;79.34
19114;BME280;9689;51.052;13.772;2023-06-26T18:29:29;100148.41;;;20.45;81.25
19114;BME280;9689;51.052;13.772;2023-06-26T18:34:29;100168.59;;;20.03;84.42
19114;BME280;9689;51.052;13.772;2023-06-26T18:39:31;100161.78;;;19.71;85.06
19114;BME280;9689;51.052;13.772;2023-06-26T18:44:32;100171.19;;;19.61;86.06
19114;BME280;9689;51.052;13.772;2023-06-26T18:49:33;100183.81;;;19.56;85.84
19114;BME280;9689;51.052;13.772;2023-06-26T18:54:35;100188.63;;;19.49;86.84
19114;BME280;9689;51.052;13.772;2023-06-26T18:59:35;100177.31;;;19.31;87.89
19114;BME280;9689;51.052;13.772;2023-06-26T19:04:38;100198.31;;;19.18;89.57
19114;BME280;9689;51.052;13.772;2023-06-26T19:09:40;100192.03;;;19.05;90.51
19114;BME280;9689;51.052;13.772;2023-06-26T19:14:41;100203.34;;;19.07;90.77
19114;BME280;9689;51.052;13.772;2023-06-26T19:19:50;100223.72;;;19.05;91.21
19114;BME280;9689;51.052;13.772;2023-06-26T19:24:53;100226.69;;;18.99;90.74
19114;BME280;9689;51.052;13.772;2023-06-26T19:29:54;100250.56;;;18.98;90.24
19114;BME280;9689;51.052;13.772;2023-06-26T19:34:55;100239.25;;;18.96;90.16
19114;BME280;9689;51.052;13.772;2023-06-26T19:39:57;100242.38;;;19.02;90.23
19114;BME280;9689;51.052;13.772;2023-06-26T19:44:59;100251.06;;;19.20;90.07
19114;BME280;9689;51.052;13.772;2023-06-26T19:50:00;100246.56;;;19.22;88.98
19114;BME280;9689;51.052;13.772;2023-06-26T19:55:02;100252.59;;;19.24;87.87
19114;BME280;9689;51.052;13.772;2023-06-26T20:00:04;100260.75;;;19.19;88.36
19114;BME280;9689;51.052;13.772;2023-06-26T20:05:09;100266.66;;;19.25;88.66
19114;BME280;9689;51.052;13.772;2023-06-26T20:10:12;100256.41;;;19.34;88.79
19114;BME280;9689;51.052;13.772;2023-06-26T20:15:12;100252.56;;;19.40;90.05
19114;BME280;9689;51.052;13.772;2023-06-26T20:20:13;100248.91;;;19.42;90.75
19114;BME280;9689;51.052;13.772;2023-06-26T20:25:15;100242.25;;;19.35;91.18
19114;BME280;9689;51.052;13.772;2023-06-26T20:30:16;100243.94;;;19.36;91.27
19114;BME280;9689;51.052;13.772;2023-06-26T20:35:17;100240.88;;;19.44;91.67
19114;BME280;9689;51.052;13.772;2023-06-26T20:40:20;100244.31;;;19.46;92.41
19114;BME280;9689;51.052;13.772;2023-06-26T20:45:21;100245.84;;;19.34;92.06
19114;BME280;9689;51.052;13.772;2023-06-26T20:50:24;100237.69;;;19.23;89.96
19114;BME280;9689;51.052;13.772;2023-06-26T20:55:26;100232.31;;;19.25;91.13
19114;BME280;9689;51.052;13.772;2023-06-26T21:00:27;100217.59;;;19.20;91.78
19114;BME280;9689;51.052;13.772;2023-06-26T21:05:28;100215.94;;;19.18;92.50
19114;BME280;9689;51.052;13.772;2023-06-26T21:10:30;100223.09;;;19.16;93.11
19114;BME280;9689;51.052;13.772;2023-06-26T21:15:31;100226.19;;;19.08;93.16
19114;BME280;9689;51.052;13.772;2023-06-26T21:20:31;100217.91;;;19.14;92.90
19114;BME280;9689;51.052;13.772;2023-06-26T21:25:33;100222.78;;;19.06;93.10
19114;BME280;9689;51.052;13.772;2023-06-26T21:30:34;100213.91;;;19.07;93.28
19114;BME280;9689;51.052;13.772;2023-06-26T21:35:36;100233.34;;;19.06;93.51
19114;BME280;9689;51.052;13.772;2023-06-26T21:40:44;100224.56;;;19.06;93.62
19114;BME280;9689;51.052;13.772;2023-06-26T21:45:44;100206.31;;;19.17;93.26
19114;BME280;9689;51.052;13.772;2023-06-26T21:50:45;100210.09;;;19.13;93.30
19114;BME280;9689;51.052;13.772;2023-06-26T21:55:47;100201.75;;;19.05;94.07
19114;BME280;9689;51.052;13.772;2023-06-26T22:00:48;100205.84;;;18.95;94.85
19114;BME280;9689;51.052;13.772;2023-06-26T22:05:49;100192.88;;;18.90;95.22
19114;BME280;9689;51.052;13.772;2023-06-26T22:10:51;100202.69;;;18.88;95.34
19114;BME280;9689;51.052;13.772;2023-06-26T22:15:52;100194.53;;;18.77;94.93
19114;BME280;9689;51.052;13.772;2023-06-26T22:20:53;100194.16;;;18.83;95.11
19114;BME280;9689;51.052;13.772;2023-06-26T22:25:55;100196.81;;;18.83;95.45
19114;BME280;9689;51.052;13.772;2023-06-26T22:30:55;100188.63;;;18.87;96.10
19114;BME280;9689;51.052;13.772;2023-06-26T22:35:56;100194.84;;;18.86;95.39
19114;BME280;9689;51.052;13.772;2023-06-26T22:40:58;100232.69;;;18.87;95.65
19114;BME280;9689;51.052;13.772;2023-06-26T22:45:59;100225.09;;;18.48;91.87
19114;BME280;9689;51.052;13.772;2023-06-26T22:50:59;100220.13;;;18.26;92.21
19114;BME280;9689;51.052;13.772;2023-06-26T22:56:01;100212.44;;;18.21;93.08
19114;BME280;9689;51.052;13.772;2023-06-26T23:01:02;100203.38;;;18.27;94.39
19114;BME280;9689;51.052;13.772;2023-06-26T23:06:04;100206.94;;;18.42;95.35
19114;BME280;9689;51.052;13.772;2023-06-26T23:11:06;100227.47;;;18.36;95.55
19114;BME280;9689;51.052;13.772;2023-06-26T23:16:06;100242.94;;;18.27;94.73
19114;BME280;9689;51.052;13.772;2023-06-26T23:21:07;100249.66;;;18.32;96.37
19114;BME280;9689;51.052;13.772;2023-06-26T23:26:09;100270.75;;;18.32;96.17
19114;BME280;9689;51.052;13.772;2023-06-26T23:31:10;100318.59;;;18.26;97.13
19114;BME280;9689;51.052;13.772;2023-06-26T23:36:15;100326.50;;;17.56;89.30
19114;BME280;9689;51.052;13.772;2023-06-26T23:41:17;100320.22;;;17.03;86.71
19114;BME280;9689;51.052;13.772;2023-06-26T23:46:17;100328.22;;;16.81;88.61
19114;BME280;9689;51.052;13.772;2023-06-26T23:51:18;100325.63;;;16.61;86.95
19114;BME280;9689;51.052;13.772;2023-06-26T23:56:20;100333.28;;;16.65;86.80
